Terminal Aerodrome Forecast
Issued by NWS Memphis, TN

Home | Current Version | Previous Version | Text Only | Print | Product List | Glossary On
Versions: 1 2 3 4 5 6 7 8 9 10 11 12 13 14 15 16 17
000
FTUS44 KMEG 010520
TAFMKL
TAF
KMKL 010520Z 0106/0206 13007KT P6SM BKN120 OVC250
     FM010800 18007KT P6SM OVC100
     FM011200 18010KT P6SM VCSH OVC050
     FM011500 18012G18KT 5SM -RA BR OVC010
     FM011700 19014G20KT 3SM -RA BR OVC009
     FM012100 22011G20KT 3SM -RA BR OVC005
     FM020200 29012KT P6SM VCSH OVC012=

USA.gov is the U.S. government's official web portal to all federal, state and local government web resources and services.